Terminal Aerodrome Forecast
Issued by NWS Sterling, VA

Current Version | Previous Version | Graphics & Text | Print | Product List | Glossary On
Versions: 1 2 3 4 5 6 7 8 9 10 11 12 13 14 15 16 17 18 19 20 21 22 23 24
000
FTUS41 KLWX 301200 AAC
TAFMRB
TAF AMD
KMRB 301239Z 3013/0112 00000KT 1/2SM FG VV001
     FM301400 00000KT P6SM FEW050 SCT250
     FM010000 00000KT 5SM BR BKN050
     FM010600 00000KT P6SM BKN250=

USA.gov is the U.S. government's official web portal to all federal, state and local government web resources and services.